sensor_id;sensor_type;location;lat;lon;timestamp;pressure;altitude;pressure_sealevel;temperature;humidity
59337;BME280;45115;52.002;4.686;2023-01-27T00:01:14;102659.31;;;4.99;100.00
59337;BME280;45115;52.002;4.686;2023-01-27T00:03:42;102653.59;;;4.95;100.00
59337;BME280;45115;52.002;4.686;2023-01-27T00:06:40;102658.56;;;5.05;100.00
59337;BME280;45115;52.002;4.686;2023-01-27T00:09:06;102654.56;;;5.09;100.00
59337;BME280;45115;52.002;4.686;2023-01-27T00:11:33;102660.47;;;5.11;100.00
59337;BME280;45115;52.002;4.686;2023-01-27T00:14:17;102647.06;;;5.06;100.00
59337;BME280;45115;52.002;4.686;2023-01-27T00:16:44;102651.31;;;5.07;100.00
59337;BME280;45115;52.002;4.686;2023-01-27T00:19:12;102657.78;;;5.04;100.00
59337;BME280;45115;52.002;4.686;2023-01-27T00:21:39;102659.84;;;5.09;100.00
59337;BME280;45115;52.002;4.686;2023-01-27T00:24:23;102647.13;;;5.13;100.00
59337;BME280;45115;52.002;4.686;2023-01-27T00:27:02;102644.75;;;5.18;100.00
59337;BME280;45115;52.002;4.686;2023-01-27T00:29:38;102641.13;;;5.19;100.00
59337;BME280;45115;52.002;4.686;2023-01-27T00:32:05;102638.59;;;5.11;100.00
59337;BME280;45115;52.002;4.686;2023-01-27T00:35:16;102639.47;;;5.18;100.00
59337;BME280;45115;52.002;4.686;2023-01-27T00:37:46;102646.59;;;5.17;100.00
59337;BME280;45115;52.002;4.686;2023-01-27T00:40:15;102650.00;;;5.18;100.00
59337;BME280;45115;52.002;4.686;2023-01-27T00:42:42;102647.38;;;5.18;100.00
59337;BME280;45115;52.002;4.686;2023-01-27T00:45:10;102646.41;;;5.19;100.00
59337;BME280;45115;52.002;4.686;2023-01-27T00:47:55;102638.78;;;5.09;100.00
59337;BME280;45115;52.002;4.686;2023-01-27T00:50:24;102646.50;;;5.11;100.00
59337;BME280;45115;52.002;4.686;2023-01-27T00:52:51;102632.22;;;4.98;100.00
59337;BME280;45115;52.002;4.686;2023-01-27T00:55:18;102645.63;;;5.03;100.00
59337;BME280;45115;52.002;4.686;2023-01-27T00:57:45;102645.16;;;5.00;100.00
59337;BME280;45115;52.002;4.686;2023-01-27T01:00:13;102646.25;;;5.05;100.00
59337;BME280;45115;52.002;4.686;2023-01-27T01:02:40;102645.16;;;5.00;100.00
59337;BME280;45115;52.002;4.686;2023-01-27T01:05:08;102646.25;;;5.05;100.00
59337;BME280;45115;52.002;4.686;2023-01-27T01:07:36;102646.25;;;5.05;100.00
59337;BME280;45115;52.002;4.686;2023-01-27T01:10:03;102655.50;;;5.01;100.00
59337;BME280;45115;52.002;4.686;2023-01-27T01:12:30;102648.44;;;5.02;100.00
59337;BME280;45115;52.002;4.686;2023-01-27T01:14:56;102650.22;;;5.01;100.00
59337;BME280;45115;52.002;4.686;2023-01-27T01:17:23;102655.66;;;5.00;100.00
59337;BME280;45115;52.002;4.686;2023-01-27T01:19:50;102658.88;;;4.95;100.00
59337;BME280;45115;52.002;4.686;2023-01-27T01:22:17;102662.69;;;4.92;100.00
59337;BME280;45115;52.002;4.686;2023-01-27T01:24:45;102648.44;;;4.87;100.00
59337;BME280;45115;52.002;4.686;2023-01-27T01:27:12;102652.59;;;4.96;100.00
59337;BME280;45115;52.002;4.686;2023-01-27T01:29:39;102657.97;;;4.88;100.00
59337;BME280;45115;52.002;4.686;2023-01-27T01:32:06;102653.16;;;4.91;100.00
59337;BME280;45115;52.002;4.686;2023-01-27T01:34:34;102656.28;;;4.80;100.00
59337;BME280;45115;52.002;4.686;2023-01-27T01:37:01;102656.28;;;4.80;100.00
59337;BME280;45115;52.002;4.686;2023-01-27T01:39:28;102636.34;;;4.56;100.00
59337;BME280;45115;52.002;4.686;2023-01-27T01:41:57;102668.50;;;4.73;100.00
59337;BME280;45115;52.002;4.686;2023-01-27T01:44:27;102658.53;;;4.68;100.00
59337;BME280;45115;52.002;4.686;2023-01-27T01:46:55;102680.75;;;4.65;100.00
59337;BME280;45115;52.002;4.686;2023-01-27T01:49:26;102679.75;;;4.67;100.00
59337;BME280;45115;52.002;4.686;2023-01-27T01:51:55;102674.31;;;4.68;100.00
59337;BME280;45115;52.002;4.686;2023-01-27T01:54:27;102680.31;;;4.62;100.00
59337;BME280;45115;52.002;4.686;2023-01-27T01:57:02;102678.84;;;4.59;100.00
59337;BME280;45115;52.002;4.686;2023-01-27T01:59:32;102683.38;;;4.50;100.00
59337;BME280;45115;52.002;4.686;2023-01-27T02:02:02;102673.50;;;4.52;100.00
59337;BME280;45115;52.002;4.686;2023-01-27T02:04:33;102674.03;;;4.48;100.00
59337;BME280;45115;52.002;4.686;2023-01-27T02:07:08;102675.66;;;4.49;100.00
59337;BME280;45115;52.002;4.686;2023-01-27T02:09:37;102666.78;;;4.50;100.00
59337;BME280;45115;52.002;4.686;2023-01-27T02:12:05;102668.78;;;4.48;100.00
59337;BME280;45115;52.002;4.686;2023-01-27T02:14:35;102668.97;;;4.46;100.00
59337;BME280;45115;52.002;4.686;2023-01-27T02:17:03;102676.47;;;4.49;100.00
59337;BME280;45115;52.002;4.686;2023-01-27T02:19:36;102685.34;;;4.48;100.00
59337;BME280;45115;52.002;4.686;2023-01-27T02:22:10;102673.41;;;4.46;100.00
59337;BME280;45115;52.002;4.686;2023-01-27T02:24:41;102672.94;;;4.42;100.00
59337;BME280;45115;52.002;4.686;2023-01-27T02:27:11;102671.66;;;4.38;100.00
59337;BME280;45115;52.002;4.686;2023-01-27T02:29:38;102669.88;;;4.38;100.00
59337;BME280;45115;52.002;4.686;2023-01-27T02:32:05;102669.03;;;4.38;100.00
59337;BME280;45115;52.002;4.686;2023-01-27T02:34:34;102677.56;;;4.40;100.00
59337;BME280;45115;52.002;4.686;2023-01-27T02:37:04;102682.19;;;4.38;100.00
59337;BME280;45115;52.002;4.686;2023-01-27T02:39:36;102689.78;;;4.33;100.00
59337;BME280;45115;52.002;4.686;2023-01-27T02:42:06;102690.16;;;4.30;100.00
59337;BME280;45115;52.002;4.686;2023-01-27T02:44:37;102676.66;;;4.33;100.00
59337;BME280;45115;52.002;4.686;2023-01-27T02:47:04;102685.53;;;4.32;100.00
59337;BME280;45115;52.002;4.686;2023-01-27T02:49:30;102685.88;;;4.29;100.00
59337;BME280;45115;52.002;4.686;2023-01-27T02:51:57;102678.81;;;4.29;100.00
59337;BME280;45115;52.002;4.686;2023-01-27T02:54:27;102676.09;;;4.22;100.00
59337;BME280;45115;52.002;4.686;2023-01-27T02:56:55;102687.25;;;4.24;100.00
59337;BME280;45115;52.002;4.686;2023-01-27T02:59:24;102685.31;;;4.18;100.00
59337;BME280;45115;52.002;4.686;2023-01-27T03:01:52;102694.66;;;4.21;100.00
59337;BME280;45115;52.002;4.686;2023-01-27T03:04:19;102685.13;;;4.20;100.00
59337;BME280;45115;52.002;4.686;2023-01-27T03:06:45;102694.03;;;4.19;100.00
59337;BME280;45115;52.002;4.686;2023-01-27T03:09:12;102684.50;;;4.18;100.00
59337;BME280;45115;52.002;4.686;2023-01-27T03:11:39;102695.19;;;4.16;100.00
59337;BME280;45115;52.002;4.686;2023-01-27T03:14:23;102687.84;;;4.11;100.00
59337;BME280;45115;52.002;4.686;2023-01-27T03:17:09;102695.38;;;4.15;100.00
59337;BME280;45115;52.002;4.686;2023-01-27T03:19:55;102694.06;;;4.10;100.00
59337;BME280;45115;52.002;4.686;2023-01-27T03:22:23;102692.91;;;4.13;100.00
59337;BME280;45115;52.002;4.686;2023-01-27T03:24:50;102685.22;;;4.11;100.00
59337;BME280;45115;52.002;4.686;2023-01-27T03:27:18;102687.91;;;4.03;100.00
59337;BME280;45115;52.002;4.686;2023-01-27T03:30:16;102697.41;;;4.04;100.00
59337;BME280;45115;52.002;4.686;2023-01-27T03:32:53;102707.75;;;4.06;100.00
59337;BME280;45115;52.002;4.686;2023-01-27T03:35:39;102711.53;;;4.03;100.00
59337;BME280;45115;52.002;4.686;2023-01-27T03:38:15;102717.81;;;4.02;100.00
59337;BME280;45115;52.002;4.686;2023-01-27T03:41:02;102713.72;;;3.99;100.00
59337;BME280;45115;52.002;4.686;2023-01-27T03:43:46;102716.84;;;3.95;100.00
59337;BME280;45115;52.002;4.686;2023-01-27T03:46:31;102715.41;;;3.92;100.00
59337;BME280;45115;52.002;4.686;2023-01-27T03:48:59;102724.28;;;3.91;100.00
59337;BME280;45115;52.002;4.686;2023-01-27T03:51:26;102714.00;;;3.81;100.00
59337;BME280;45115;52.002;4.686;2023-01-27T03:53:53;102725.44;;;3.89;100.00
59337;BME280;45115;52.002;4.686;2023-01-27T03:56:20;102733.03;;;3.83;100.00
59337;BME280;45115;52.002;4.686;2023-01-27T03:58:48;102732.22;;;3.83;100.00
59337;BME280;45115;52.002;4.686;2023-01-27T04:01:18;102728.94;;;3.81;100.00
59337;BME280;45115;52.002;4.686;2023-01-27T04:03:45;102745.06;;;3.78;100.00
59337;BME280;45115;52.002;4.686;2023-01-27T04:06:33;102733.59;;;3.70;100.00
59337;BME280;45115;52.002;4.686;2023-01-27T04:09:22;102755.09;;;3.74;100.00
59337;BME280;45115;52.002;4.686;2023-01-27T04:11:49;102750.81;;;3.73;100.00
59337;BME280;45115;52.002;4.686;2023-01-27T04:14:25;102762.31;;;3.72;100.00
59337;BME280;45115;52.002;4.686;2023-01-27T04:16:55;102753.63;;;3.71;100.00
59337;BME280;45115;52.002;4.686;2023-01-27T04:19:22;102750.41;;;3.61;100.00
59337;BME280;45115;52.002;4.686;2023-01-27T04:21:51;102761.22;;;3.66;100.00
59337;BME280;45115;52.002;4.686;2023-01-27T04:24:18;102766.16;;;3.61;100.00
59337;BME280;45115;52.002;4.686;2023-01-27T04:26:50;102762.53;;;3.62;100.00
59337;BME280;45115;52.002;4.686;2023-01-27T04:29:18;102776.66;;;3.61;100.00
59337;BME280;45115;52.002;4.686;2023-01-27T04:31:45;102779.44;;;3.59;100.00
59337;BME280;45115;52.002;4.686;2023-01-27T04:34:13;102774.38;;;3.58;100.00
59337;BME280;45115;52.002;4.686;2023-01-27T04:36:39;102763.56;;;3.53;100.00
59337;BME280;45115;52.002;4.686;2023-01-27T04:39:08;102766.88;;;3.47;100.00
59337;BME280;45115;52.002;4.686;2023-01-27T04:41:35;102778.78;;;3.57;100.00
59337;BME280;45115;52.002;4.686;2023-01-27T04:44:05;102768.19;;;3.51;100.00
59337;BME280;45115;52.002;4.686;2023-01-27T04:46:40;102779.31;;;3.53;100.00
59337;BME280;45115;52.002;4.686;2023-01-27T04:49:07;102781.09;;;3.52;100.00
59337;BME280;45115;52.002;4.686;2023-01-27T04:51:34;102782.47;;;3.48;100.00
59337;BME280;45115;52.002;4.686;2023-01-27T04:54:01;102777.69;;;3.52;100.00
59337;BME280;45115;52.002;4.686;2023-01-27T04:56:33;102769.13;;;3.58;100.00
59337;BME280;45115;52.002;4.686;2023-01-27T04:59:03;102777.31;;;3.55;100.00
59337;BME280;45115;52.002;4.686;2023-01-27T05:01:30;102778.16;;;3.55;100.00
59337;BME280;45115;52.002;4.686;2023-01-27T05:03:57;102778.63;;;3.59;100.00
59337;BME280;45115;52.002;4.686;2023-01-27T05:06:24;102776.66;;;3.61;100.00
59337;BME280;45115;52.002;4.686;2023-01-27T05:08:51;102782.53;;;3.63;100.00
59337;BME280;45115;52.002;4.686;2023-01-27T05:11:20;102777.63;;;3.60;100.00
59337;BME280;45115;52.002;4.686;2023-01-27T05:13:48;102782.22;;;3.66;100.00
59337;BME280;45115;52.002;4.686;2023-01-27T05:16:17;102786.09;;;3.70;100.00
59337;BME280;45115;52.002;4.686;2023-01-27T05:18:45;102780.53;;;3.74;100.00
59337;BME280;45115;52.002;4.686;2023-01-27T05:21:13;102775.78;;;3.69;100.00
59337;BME280;45115;52.002;4.686;2023-01-27T05:23:40;102758.91;;;3.63;100.00
59337;BME280;45115;52.002;4.686;2023-01-27T05:26:10;102783.16;;;3.74;100.00
59337;BME280;45115;52.002;4.686;2023-01-27T05:28:39;102787.75;;;3.71;100.00
59337;BME280;45115;52.002;4.686;2023-01-27T05:31:10;102782.16;;;3.75;100.00
59337;BME280;45115;52.002;4.686;2023-01-27T05:33:38;102774.13;;;3.68;100.00
59337;BME280;45115;52.002;4.686;2023-01-27T05:36:06;102785.13;;;3.71;100.00
59337;BME280;45115;52.002;4.686;2023-01-27T05:38:34;102776.97;;;3.66;100.00
59337;BME280;45115;52.002;4.686;2023-01-27T05:41:02;102795.09;;;3.76;100.00
59337;BME280;45115;52.002;4.686;2023-01-27T05:43:30;102806.25;;;3.78;100.00
59337;BME280;45115;52.002;4.686;2023-01-27T05:46:02;102802.16;;;3.76;100.00
59337;BME280;45115;52.002;4.686;2023-01-27T05:48:30;102809.53;;;3.80;100.00
59337;BME280;45115;52.002;4.686;2023-01-27T05:50:58;102801.00;;;3.78;100.00
59337;BME280;45115;52.002;4.686;2023-01-27T05:53:25;102808.38;;;3.83;100.00
59337;BME280;45115;52.002;4.686;2023-01-27T05:55:52;102801.28;;;3.83;100.00
59337;BME280;45115;52.002;4.686;2023-01-27T05:58:20;102808.00;;;3.86;100.00
59337;BME280;45115;52.002;4.686;2023-01-27T06:00:47;102813.25;;;3.86;100.00
59337;BME280;45115;52.002;4.686;2023-01-27T06:03:14;102809.63;;;3.87;100.00
59337;BME280;45115;52.002;4.686;2023-01-27T06:05:53;102810.31;;;3.89;100.00
59337;BME280;45115;52.002;4.686;2023-01-27T06:08:21;102809.47;;;3.89;100.00
59337;BME280;45115;52.002;4.686;2023-01-27T06:10:48;102813.91;;;3.88;100.00
59337;BME280;45115;52.002;4.686;2023-01-27T06:13:17;102804.22;;;3.89;100.00
59337;BME280;45115;52.002;4.686;2023-01-27T06:15:45;102812.56;;;3.92;100.00
59337;BME280;45115;52.002;4.686;2023-01-27T06:18:13;102802.75;;;3.86;100.00
59337;BME280;45115;52.002;4.686;2023-01-27T06:20:40;102807.66;;;3.89;100.00
59337;BME280;45115;52.002;4.686;2023-01-27T06:23:09;102829.69;;;3.88;100.00
59337;BME280;45115;52.002;4.686;2023-01-27T06:25:37;102813.72;;;3.90;100.00
59337;BME280;45115;52.002;4.686;2023-01-27T06:28:04;102817.72;;;3.85;100.00
59337;BME280;45115;52.002;4.686;2023-01-27T06:30:32;102813.91;;;3.88;100.00
59337;BME280;45115;52.002;4.686;2023-01-27T06:32:58;102811.28;;;3.88;100.00
59337;BME280;45115;52.002;4.686;2023-01-27T06:35:25;102811.28;;;3.88;100.00
59337;BME280;45115;52.002;4.686;2023-01-27T06:37:52;102815.25;;;3.84;100.00
59337;BME280;45115;52.002;4.686;2023-01-27T06:40:20;102823.44;;;3.89;100.00
59337;BME280;45115;52.002;4.686;2023-01-27T06:42:47;102826.56;;;3.84;100.00
59337;BME280;45115;52.002;4.686;2023-01-27T06:45:13;102824.59;;;3.87;100.00
59337;BME280;45115;52.002;4.686;2023-01-27T06:47:40;102818.88;;;3.83;100.00
59337;BME280;45115;52.002;4.686;2023-01-27T06:50:08;102830.53;;;3.80;100.00
59337;BME280;45115;52.002;4.686;2023-01-27T06:52:36;102839.88;;;3.83;100.00
59337;BME280;45115;52.002;4.686;2023-01-27T06:55:04;102830.41;;;3.74;100.00
59337;BME280;45115;52.002;4.686;2023-01-27T06:57:32;102814.34;;;3.68;100.00
59337;BME280;45115;52.002;4.686;2023-01-27T06:59:59;102828.25;;;3.77;100.00
59337;BME280;45115;52.002;4.686;2023-01-27T07:02:25;102831.69;;;3.78;100.00
59337;BME280;45115;52.002;4.686;2023-01-27T07:04:52;102831.72;;;3.69;100.00
59337;BME280;45115;52.002;4.686;2023-01-27T07:07:19;102832.19;;;3.73;100.00
59337;BME280;45115;52.002;4.686;2023-01-27T07:09:45;102837.63;;;3.71;100.00
59337;BME280;45115;52.002;4.686;2023-01-27T07:12:12;102839.28;;;3.72;100.00
59337;BME280;45115;52.002;4.686;2023-01-27T07:14:40;102843.53;;;3.74;100.00
59337;BME280;45115;52.002;4.686;2023-01-27T07:17:07;102851.41;;;3.74;100.00
59337;BME280;45115;52.002;4.686;2023-01-27T07:19:34;102843.06;;;3.70;100.00
59337;BME280;45115;52.002;4.686;2023-01-27T07:22:01;102845.00;;;3.68;100.00
59337;BME280;45115;52.002;4.686;2023-01-27T07:24:28;102846.53;;;3.62;100.00
59337;BME280;45115;52.002;4.686;2023-01-27T07:26:54;102834.75;;;3.50;100.00
59337;BME280;45115;52.002;4.686;2023-01-27T07:29:21;102839.84;;;3.51;100.00
59337;BME280;45115;52.002;4.686;2023-01-27T07:31:49;102842.00;;;3.48;100.00
59337;BME280;45115;52.002;4.686;2023-01-27T07:34:16;102849.88;;;3.39;100.00
59337;BME280;45115;52.002;4.686;2023-01-27T07:36:43;102850.56;;;3.33;100.00
59337;BME280;45115;52.002;4.686;2023-01-27T07:39:09;102855.16;;;3.31;100.00
59337;BME280;45115;52.002;4.686;2023-01-27T07:41:36;102862.03;;;3.32;100.00
59337;BME280;45115;52.002;4.686;2023-01-27T07:44:03;102862.56;;;3.27;100.00
59337;BME280;45115;52.002;4.686;2023-01-27T07:46:32;102876.31;;;3.38;100.00
59337;BME280;45115;52.002;4.686;2023-01-27T07:49:03;102873.31;;;3.41;100.00
59337;BME280;45115;52.002;4.686;2023-01-27T07:51:29;102868.25;;;3.39;100.00
59337;BME280;45115;52.002;4.686;2023-01-27T07:53:56;102885.13;;;3.45;100.00
59337;BME280;45115;52.002;4.686;2023-01-27T07:56:23;102881.50;;;3.46;100.00
59337;BME280;45115;52.002;4.686;2023-01-27T07:58:52;102881.34;;;3.48;100.00
59337;BME280;45115;52.002;4.686;2023-01-27T08:01:19;102883.81;;;3.49;100.00
59337;BME280;45115;52.002;4.686;2023-01-27T08:03:46;102880.88;;;3.44;100.00
59337;BME280;45115;52.002;4.686;2023-01-27T08:06:14;102884.81;;;3.48;100.00
59337;BME280;45115;52.002;4.686;2023-01-27T08:08:40;102886.44;;;3.49;100.00
59337;BME280;45115;52.002;4.686;2023-01-27T08:11:08;102896.25;;;3.55;100.00
59337;BME280;45115;52.002;4.686;2023-01-27T08:13:36;102892.16;;;3.53;100.00
59337;BME280;45115;52.002;4.686;2023-01-27T08:16:04;102900.66;;;3.55;100.00
59337;BME280;45115;52.002;4.686;2023-01-27T08:18:34;102894.25;;;3.57;100.00
59337;BME280;45115;52.002;4.686;2023-01-27T08:21:02;102899.81;;;3.63;100.00
59337;BME280;45115;52.002;4.686;2023-01-27T08:23:31;102895.09;;;3.58;100.00
59337;BME280;45115;52.002;4.686;2023-01-27T08:26:00;102901.28;;;3.65;100.00
59337;BME280;45115;52.002;4.686;2023-01-27T08:28:30;102900.19;;;3.59;100.00
59337;BME280;45115;52.002;4.686;2023-01-27T08:31:03;102907.75;;;3.54;100.00
59337;BME280;45115;52.002;4.686;2023-01-27T08:33:30;102910.22;;;3.56;100.00
59337;BME280;45115;52.002;4.686;2023-01-27T08:36:01;102910.53;;;3.61;100.00
59337;BME280;45115;52.002;4.686;2023-01-27T08:38:28;102913.63;;;3.65;100.00
59337;BME280;45115;52.002;4.686;2023-01-27T08:40:56;102903.13;;;3.56;100.00
59337;BME280;45115;52.002;4.686;2023-01-27T08:43:23;102914.31;;;3.58;100.00
59337;BME280;45115;52.002;4.686;2023-01-27T08:45:51;102910.84;;;3.66;100.00
59337;BME280;45115;52.002;4.686;2023-01-27T08:48:17;102911.31;;;3.62;100.00
59337;BME280;45115;52.002;4.686;2023-01-27T08:50:44;102912.31;;;3.61;100.00
59337;BME280;45115;52.002;4.686;2023-01-27T08:53:11;102910.53;;;3.61;100.00
59337;BME280;45115;52.002;4.686;2023-01-27T08:55:37;102907.69;;;3.63;100.00
59337;BME280;45115;52.002;4.686;2023-01-27T08:58:05;102910.63;;;3.68;100.00
59337;BME280;45115;52.002;4.686;2023-01-27T09:00:33;102913.41;;;3.75;100.00
59337;BME280;45115;52.002;4.686;2023-01-27T09:02:59;102924.91;;;3.65;100.00
59337;BME280;45115;52.002;4.686;2023-01-27T09:05:26;102913.16;;;3.61;100.00
59337;BME280;45115;52.002;4.686;2023-01-27T09:07:53;102918.97;;;3.88;100.00
59337;BME280;45115;52.002;4.686;2023-01-27T09:10:20;102917.88;;;4.06;100.00
59337;BME280;45115;52.002;4.686;2023-01-27T09:12:46;102914.97;;;4.01;100.00
59337;BME280;45115;52.002;4.686;2023-01-27T09:15:15;102917.97;;;3.89;100.00
59337;BME280;45115;52.002;4.686;2023-01-27T09:17:41;102915.34;;;3.81;100.00
59337;BME280;45115;52.002;4.686;2023-01-27T09:20:09;102916.41;;;3.71;100.00
59337;BME280;45115;52.002;4.686;2023-01-27T09:22:37;102918.09;;;3.56;100.00
59337;BME280;45115;52.002;4.686;2023-01-27T09:25:06;102916.09;;;3.58;100.00
59337;BME280;45115;52.002;4.686;2023-01-27T09:27:33;102925.59;;;3.59;100.00
59337;BME280;45115;52.002;4.686;2023-01-27T09:29:59;102926.47;;;3.91;100.00
59337;BME280;45115;52.002;4.686;2023-01-27T09:32:27;102929.03;;;4.08;100.00
59337;BME280;45115;52.002;4.686;2023-01-27T09:34:54;102932.50;;;4.40;100.00
59337;BME280;45115;52.002;4.686;2023-01-27T09:37:21;102933.63;;;4.69;100.00
59337;BME280;45115;52.002;4.686;2023-01-27T09:39:51;102922.75;;;4.49;100.00
59337;BME280;45115;52.002;4.686;2023-01-27T09:42:49;102926.28;;;4.33;100.00
59337;BME280;45115;52.002;4.686;2023-01-27T09:45:29;102920.31;;;4.39;100.00
59337;BME280;45115;52.002;4.686;2023-01-27T09:48:26;102917.94;;;4.29;100.00
59337;BME280;45115;52.002;4.686;2023-01-27T09:51:01;102922.59;;;4.19;100.00
59337;BME280;45115;52.002;4.686;2023-01-27T09:53:48;102927.00;;;4.18;100.00
59337;BME280;45115;52.002;4.686;2023-01-27T09:56:25;102914.53;;;4.20;100.00
59337;BME280;45115;52.002;4.686;2023-01-27T09:59:06;102923.78;;;4.39;100.00
59337;BME280;45115;52.002;4.686;2023-01-27T10:01:44;102919.22;;;4.33;100.00
59337;BME280;45115;52.002;4.686;2023-01-27T10:04:28;102913.41;;;4.46;100.00
59337;BME280;45115;52.002;4.686;2023-01-27T10:07:15;102925.78;;;4.61;100.00
59337;BME280;45115;52.002;4.686;2023-01-27T10:10:02;102925.09;;;4.44;100.00
59337;BME280;45115;52.002;4.686;2023-01-27T10:12:45;102926.59;;;4.61;100.00
59337;BME280;45115;52.002;4.686;2023-01-27T10:15:23;102934.16;;;4.88;100.00
59337;BME280;45115;52.002;4.686;2023-01-27T10:18:02;102929.97;;;5.47;100.00
59337;BME280;45115;52.002;4.686;2023-01-27T10:20:42;102931.34;;;5.43;100.00
59337;BME280;45115;52.002;4.686;2023-01-27T10:23:22;102931.78;;;5.16;100.00
59337;BME280;45115;52.002;4.686;2023-01-27T10:25:57;102932.75;;;5.15;100.00
59337;BME280;45115;52.002;4.686;2023-01-27T10:28:30;102932.94;;;5.14;100.00
59337;BME280;45115;52.002;4.686;2023-01-27T10:30:59;102931.41;;;5.19;100.00
59337;BME280;45115;52.002;4.686;2023-01-27T10:33:37;102925.00;;;4.99;100.00
59337;BME280;45115;52.002;4.686;2023-01-27T10:36:14;102928.31;;;5.16;100.00
59337;BME280;45115;52.002;4.686;2023-01-27T10:38:46;102937.88;;;5.32;100.00
59337;BME280;45115;52.002;4.686;2023-01-27T10:41:25;102929.69;;;5.27;100.00
59337;BME280;45115;52.002;4.686;2023-01-27T10:44:07;102932.06;;;5.22;100.00
59337;BME280;45115;52.002;4.686;2023-01-27T10:46:46;102932.78;;;5.30;100.00
59337;BME280;45115;52.002;4.686;2023-01-27T10:49:18;102928.25;;;5.39;100.00
59337;BME280;45115;52.002;4.686;2023-01-27T10:51:53;102939.75;;;5.23;100.00
59337;BME280;45115;52.002;4.686;2023-01-27T10:54:26;102923.69;;;4.79;100.00
59337;BME280;45115;52.002;4.686;2023-01-27T10:56:59;102944.00;;;4.62;100.00
59337;BME280;45115;52.002;4.686;2023-01-27T10:59:29;102930.53;;;4.65;100.00
59337;BME280;45115;52.002;4.686;2023-01-27T11:02:04;102932.41;;;4.57;100.00
59337;BME280;45115;52.002;4.686;2023-01-27T11:04:39;102934.06;;;4.73;100.00
59337;BME280;45115;52.002;4.686;2023-01-27T11:07:14;102926.72;;;4.68;100.00
59337;BME280;45115;52.002;4.686;2023-01-27T11:09:47;102930.66;;;4.72;100.00
59337;BME280;45115;52.002;4.686;2023-01-27T11:12:15;102928.22;;;4.86;100.00
59337;BME280;45115;52.002;4.686;2023-01-27T11:14:44;102920.00;;;4.89;100.00
59337;BME280;45115;52.002;4.686;2023-01-27T11:17:14;102918.44;;;4.95;100.00
59337;BME280;45115;52.002;4.686;2023-01-27T11:19:49;102925.16;;;4.97;100.00
59337;BME280;45115;52.002;4.686;2023-01-27T11:22:23;102921.75;;;4.97;100.00
59337;BME280;45115;52.002;4.686;2023-01-27T11:25:00;102917.78;;;5.16;100.00
59337;BME280;45115;52.002;4.686;2023-01-27T11:27:51;102919.53;;;5.24;100.00
59337;BME280;45115;52.002;4.686;2023-01-27T11:30:25;102913.41;;;5.08;100.00
59337;BME280;45115;52.002;4.686;2023-01-27T11:32:59;102916.59;;;5.03;100.00
59337;BME280;45115;52.002;4.686;2023-01-27T11:35:26;102909.66;;;5.02;100.00
59337;BME280;45115;52.002;4.686;2023-01-27T11:37:54;102916.03;;;5.08;100.00
59337;BME280;45115;52.002;4.686;2023-01-27T11:40:25;102911.38;;;4.95;100.00
59337;BME280;45115;52.002;4.686;2023-01-27T11:42:54;102916.31;;;4.98;100.00
59337;BME280;45115;52.002;4.686;2023-01-27T11:45:23;102906.59;;;4.99;100.00
59337;BME280;45115;52.002;4.686;2023-01-27T11:47:54;102906.34;;;5.09;100.00
59337;BME280;45115;52.002;4.686;2023-01-27T11:50:22;102911.97;;;5.05;100.00
59337;BME280;45115;52.002;4.686;2023-01-27T11:52:57;102902.88;;;5.08;100.00
59337;BME280;45115;52.002;4.686;2023-01-27T11:55:28;102898.63;;;5.07;100.00
59337;BME280;45115;52.002;4.686;2023-01-27T11:58:07;102892.34;;;4.93;100.00
59337;BME280;45115;52.002;4.686;2023-01-27T12:00:39;102902.22;;;4.91;100.00
59337;BME280;45115;52.002;4.686;2023-01-27T12:03:15;102896.44;;;4.96;100.00
59337;BME280;45115;52.002;4.686;2023-01-27T12:05:46;102887.19;;;4.76;100.00
59337;BME280;45115;52.002;4.686;2023-01-27T12:08:38;102893.22;;;4.85;100.00
59337;BME280;45115;52.002;4.686;2023-01-27T12:11:24;102903.06;;;4.68;100.00
59337;BME280;45115;52.002;4.686;2023-01-27T12:13:54;102884.81;;;4.67;100.00
59337;BME280;45115;52.002;4.686;2023-01-27T12:16:25;102884.53;;;4.61;100.00
59337;BME280;45115;52.002;4.686;2023-01-27T12:18:58;102892.53;;;4.68;100.00
59337;BME280;45115;52.002;4.686;2023-01-27T12:21:41;102877.81;;;4.59;100.00
59337;BME280;45115;52.002;4.686;2023-01-27T12:24:20;102895.16;;;4.68;100.00
59337;BME280;45115;52.002;4.686;2023-01-27T12:26:50;102886.13;;;4.71;100.00
59337;BME280;45115;52.002;4.686;2023-01-27T12:29:20;102892.16;;;4.71;100.00
59337;BME280;45115;52.002;4.686;2023-01-27T12:31:52;102893.88;;;4.64;100.00
59337;BME280;45115;52.002;4.686;2023-01-27T12:34:24;102894.81;;;4.71;100.00
59337;BME280;45115;52.002;4.686;2023-01-27T12:36:54;102888.97;;;4.61;100.00
59337;BME280;45115;52.002;4.686;2023-01-27T12:39:39;102881.94;;;4.76;100.00
59337;BME280;45115;52.002;4.686;2023-01-27T12:42:38;102884.56;;;4.76;100.00
59337;BME280;45115;52.002;4.686;2023-01-27T12:45:23;102885.81;;;4.89;100.00
59337;BME280;45115;52.002;4.686;2023-01-27T12:48:00;102875.91;;;4.91;100.00
59337;BME280;45115;52.002;4.686;2023-01-27T12:50:29;102883.56;;;5.01;100.00
59337;BME280;45115;52.002;4.686;2023-01-27T12:53:04;102874.00;;;5.00;100.00
59337;BME280;45115;52.002;4.686;2023-01-27T12:55:34;102885.44;;;4.92;100.00
59337;BME280;45115;52.002;4.686;2023-01-27T12:58:02;102874.06;;;4.76;100.00
59337;BME280;45115;52.002;4.686;2023-01-27T13:00:29;102873.97;;;4.70;100.00
59337;BME280;45115;52.002;4.686;2023-01-27T13:03:04;102865.25;;;4.69;100.00
59337;BME280;45115;52.002;4.686;2023-01-27T13:05:38;102863.97;;;4.65;100.00
59337;BME280;45115;52.002;4.686;2023-01-27T13:08:12;102877.41;;;4.70;100.00
59337;BME280;45115;52.002;4.686;2023-01-27T13:10:49;102871.34;;;4.70;100.00